Time;durP1;ratioP1;P1;durP2;ratioP2;P2;SDS_P1;SDS_P2;PMS_P1;PMS_P2;Temp;Humidity;BMP_temperature;BMP_pressure;BME280_temperature;BME280_humidity;BME280_pressure;Samples;Min_cycle;Max_cycle;Signal;HPM_P1;HPM_P2
2022/07/31 00:01:19;;;;;;;24.13;10.10;;;28.10;95.00;;;;;;5053853;28;20051;-72
2022/07/31 00:04:23;;;;;;;25.35;7.40;;;28.00;95.30;;;;;;5053300;28;20048;-72
2022/07/31 00:07:27;;;;;;;17.35;7.03;;;28.00;94.70;;;;;;5052938;28;20040;-72
2022/07/31 00:10:31;;;;;;;18.80;7.43;;;27.90;94.50;;;;;;5053742;28;20040;-72
2022/07/31 00:13:35;;;;;;;20.33;7.65;;;27.90;94.50;;;;;;5053288;28;20048;-71
2022/07/31 00:16:39;;;;;;;15.57;7.88;;;27.70;94.70;;;;;;5053962;28;20043;-72
2022/07/31 00:19:43;;;;;;;21.75;7.57;;;27.70;95.20;;;;;;5053692;28;20043;-72
2022/07/31 00:22:48;;;;;;;22.40;7.80;;;27.70;95.20;;;;;;5053520;28;20047;-71
2022/07/31 00:25:52;;;;;;;16.88;8.25;;;27.70;95.50;;;;;;5053639;28;20048;-71
2022/07/31 00:28:55;;;;;;;18.00;8.05;;;27.70;95.50;;;;;;5053463;28;20040;-71
2022/07/31 00:31:59;;;;;;;13.98;8.18;;;27.60;95.70;;;;;;5053367;28;20068;-72
2022/07/31 00:35:04;;;;;;;19.60;8.65;;;27.70;95.80;;;;;;5052473;28;20040;-72
2022/07/31 00:38:09;;;;;;;16.85;7.47;;;27.70;95.80;;;;;;5053588;28;20063;-71
2022/07/31 00:41:13;;;;;;;19.90;9.02;;;27.80;95.60;;;;;;5052928;28;20052;-72
2022/07/31 00:44:17;;;;;;;17.63;7.85;;;27.90;95.30;;;;;;5052387;28;20048;-72
2022/07/31 00:47:21;;;;;;;12.73;7.45;;;27.80;95.30;;;;;;5052966;28;20035;-71
2022/07/31 00:50:25;;;;;;;18.48;7.72;;;27.70;95.30;;;;;;5052119;28;20039;-71
2022/07/31 00:53:29;;;;;;;19.42;7.60;;;27.60;95.40;;;;;;5053039;28;20044;-72
2022/07/31 00:56:33;;;;;;;17.60;7.60;;;27.60;95.50;;;;;;5051991;28;20499;-72
2022/07/31 00:59:37;;;;;;;16.58;7.55;;;27.60;95.70;;;;;;5053083;28;20419;-72
2022/07/31 01:02:43;;;;;;;19.40;8.40;;;27.60;95.50;;;;;;5052535;28;20056;-71
2022/07/31 01:05:48;;;;;;;11.60;7.65;;;27.60;95.50;;;;;;5052593;28;20036;-71
2022/07/31 01:08:52;;;;;;;18.52;8.73;;;27.60;95.40;;;;;;5052579;28;20048;-71
2022/07/31 01:12:04;;;;;;;22.23;8.10;;;27.60;95.50;;;;;;5052424;28;20499;-71
2022/07/31 01:15:10;;;;;;;17.73;7.95;;;27.60;95.50;;;;;;5051875;28;20047;-71
2022/07/31 01:18:16;;;;;;;18.15;7.53;;;27.50;95.60;;;;;;5052739;28;20052;-71
2022/07/31 01:21:50;;;;;;;20.73;8.48;;;27.50;95.70;;;;;;5052232;28;20052;-71
2022/07/31 01:25:16;;;;;;;19.23;8.63;;;27.40;95.70;;;;;;5048189;28;20052;-71
2022/07/31 01:28:58;;;;;;;17.77;8.38;;;27.40;95.80;;;;;;5051746;28;20040;-70
2022/07/31 01:32:12;;;;;;;17.40;8.07;;;27.30;96.00;;;;;;5051151;28;20063;-71
2022/07/31 01:35:37;;;;;;;17.45;8.15;;;27.20;96.10;;;;;;5051555;28;20044;-71
2022/07/31 01:38:45;;;;;;;18.15;8.43;;;27.20;96.20;;;;;;5042272;28;20047;-71
2022/07/31 01:41:52;;;;;;;14.88;8.43;;;27.10;96.20;;;;;;5050856;28;20052;-71
2022/07/31 01:45:01;;;;;;;16.80;8.23;;;27.10;96.30;;;;;;5052261;28;20044;-71
2022/07/31 01:48:09;;;;;;;18.38;8.93;;;27.00;96.50;;;;;;5050895;28;20044;-71
2022/07/31 01:51:17;;;;;;;12.40;8.27;;;27.10;96.60;;;;;;5051000;28;20056;-71
2022/07/31 01:54:25;;;;;;;16.50;8.55;;;27.10;96.10;;;;;;5050898;28;20040;-71
2022/07/31 01:57:34;;;;;;;24.75;8.52;;;26.90;96.50;;;;;;5050677;28;20060;-71
2022/07/31 02:00:41;;;;;;;17.63;8.93;;;27.00;96.70;;;;;;5050568;28;20104;-71
2022/07/31 02:03:46;;;;;;;17.90;7.22;;;26.90;96.70;;;;;;5050790;28;20531;-71
2022/07/31 02:06:54;;;;;;;16.52;6.88;;;26.80;96.70;;;;;;5050996;28;20063;-71
2022/07/31 02:09:58;;;;;;;13.32;7.47;;;26.90;96.60;;;;;;5050560;28;20040;-71
2022/07/31 02:13:04;;;;;;;19.42;7.28;;;26.70;96.50;;;;;;5050810;28;20040;-71
2022/07/31 02:16:09;;;;;;;14.00;7.05;;;26.90;96.40;;;;;;5050422;28;20233;-71
2022/07/31 02:19:13;;;;;;;18.60;7.20;;;26.90;96.20;;;;;;5050662;28;20396;-71
2022/07/31 02:22:19;;;;;;;16.27;7.05;;;27.00;95.90;;;;;;5050277;28;20059;-71
2022/07/31 02:25:24;;;;;;;9.65;6.93;;;27.00;95.80;;;;;;5051296;28;20040;-71
2022/07/31 02:28:29;;;;;;;13.20;6.32;;;27.00;95.60;;;;;;5050496;28;20129;-71
2022/07/31 02:31:36;;;;;;;19.02;7.07;;;27.00;95.50;;;;;;5050335;28;20052;-71
2022/07/31 02:34:42;;;;;;;12.45;6.53;;;27.00;95.40;;;;;;5039176;28;20425;-71
2022/07/31 02:37:50;;;;;;;7.93;6.55;;;27.10;95.30;;;;;;5050342;28;20115;-71
2022/07/31 02:40:58;;;;;;;15.55;6.90;;;27.10;95.20;;;;;;5049629;28;20053;-71
2022/07/31 02:44:04;;;;;;;14.68;6.30;;;27.10;95.20;;;;;;5038801;28;20048;-71
2022/07/31 02:47:08;;;;;;;8.93;6.80;;;27.00;95.30;;;;;;5051282;28;20044;-71
2022/07/31 02:50:12;;;;;;;14.50;6.63;;;27.00;95.20;;;;;;5050816;28;20044;-71
2022/07/31 02:53:16;;;;;;;12.52;6.88;;;26.90;95.30;;;;;;5050758;28;20040;-71
2022/07/31 02:56:22;;;;;;;11.18;6.20;;;26.90;95.30;;;;;;5050137;28;20040;-71
2022/07/31 02:59:26;;;;;;;14.10;7.18;;;26.90;95.30;;;;;;5050147;28;20048;-71
2022/07/31 03:02:36;;;;;;;11.27;6.63;;;26.90;95.50;;;;;;5049828;28;20055;-71
2022/07/31 03:05:41;;;;;;;17.92;7.40;;;26.80;95.40;;;;;;5038592;28;20048;-71
2022/07/31 03:08:45;;;;;;;15.75;6.97;;;26.70;95.70;;;;;;5050925;28;20083;-71
2022/07/31 03:11:52;;;;;;;14.00;7.10;;;26.60;96.00;;;;;;5049831;28;20048;-71
2022/07/31 03:14:57;;;;;;;13.85;6.90;;;26.60;96.10;;;;;;5049869;28;20448;-71
2022/07/31 03:18:03;;;;;;;14.27;7.30;;;26.50;96.10;;;;;;5049824;28;20048;-71
2022/07/31 03:21:12;;;;;;;13.75;6.47;;;26.50;96.20;;;;;;5049612;28;20048;-71
2022/07/31 03:24:16;;;;;;;16.67;6.80;;;26.40;96.30;;;;;;5049705;28;20052;-71
2022/07/31 03:27:20;;;;;;;10.38;6.28;;;26.50;96.30;;;;;;5050735;28;20052;-71
2022/07/31 03:30:25;;;;;;;13.15;6.53;;;26.40;96.10;;;;;;5049943;28;20058;-71
2022/07/31 03:33:31;;;;;;;12.20;6.28;;;26.40;96.10;;;;;;5049436;28;20043;-71
2022/07/31 03:36:36;;;;;;;12.52;6.32;;;26.40;96.10;;;;;;5049301;28;20211;-72
2022/07/31 03:39:41;;;;;;;11.85;6.25;;;26.40;96.00;;;;;;5049570;28;20052;-72
2022/07/31 03:42:49;;;;;;;13.68;6.60;;;26.40;96.00;;;;;;5038288;28;20056;-70
2022/07/31 03:45:54;;;;;;;15.25;7.30;;;26.40;96.00;;;;;;5049462;28;20056;-71
2022/07/31 03:48:59;;;;;;;14.88;6.18;;;26.50;96.20;;;;;;5053705;28;20051;-71
2022/07/31 03:52:06;;;;;;;14.10;6.88;;;26.60;96.00;;;;;;5053516;28;20044;-71
2022/07/31 03:55:10;;;;;;;9.85;6.10;;;26.60;95.90;;;;;;5052885;28;20048;-71
2022/07/31 03:58:16;;;;;;;13.00;6.32;;;26.50;95.90;;;;;;5052817;28;20040;-73
2022/07/31 04:01:21;;;;;;;11.20;5.70;;;26.60;95.70;;;;;;5052768;28;20499;-71
2022/07/31 04:04:27;;;;;;;12.73;6.57;;;26.50;95.60;;;;;;5052901;28;20435;-71
2022/07/31 04:07:42;;;;;;;14.68;6.63;;;26.40;95.60;;;;;;5052803;28;20295;-71
2022/07/31 04:10:48;;;;;;;14.85;6.53;;;26.30;96.20;;;;;;5052642;28;20396;-72
2022/07/31 04:13:55;;;;;;;18.70;7.05;;;26.30;96.00;;;;;;5052788;28;20039;-71
2022/07/31 04:16:59;;;;;;;13.52;6.45;;;26.30;95.80;;;;;;5053654;28;20048;-71
2022/07/31 04:20:05;;;;;;;14.10;7.13;;;26.30;95.90;;;;;;5041370;28;20043;-72
2022/07/31 04:23:09;;;;;;;33.40;13.82;;;26.20;96.00;;;;;;5052493;28;20056;-72
2022/07/31 04:26:32;;;;;;;40.55;18.48;;;26.20;96.30;;;;;;5053334;28;20040;-72
2022/07/31 04:29:40;;;;;;;21.17;9.82;;;26.20;96.00;;;;;;5052706;28;20040;-72
2022/07/31 04:32:44;;;;;;;12.55;8.13;;;26.30;96.00;;;;;;5052340;28;20044;-71
2022/07/31 04:35:51;;;;;;;13.23;6.60;;;26.20;96.00;;;;;;5052231;28;20434;-73
2022/07/31 04:38:55;;;;;;;16.48;6.65;;;26.20;96.00;;;;;;5053149;28;20052;-71
2022/07/31 04:42:00;;;;;;;8.98;6.32;;;26.30;96.00;;;;;;5051889;28;20052;-71
2022/07/31 04:45:04;;;;;;;14.20;6.97;;;26.30;95.80;;;;;;5052507;28;20051;-71
2022/07/31 04:48:10;;;;;;;14.93;7.20;;;26.40;95.80;;;;;;5052230;28;20051;-72
2022/07/31 04:51:19;;;;;;;13.25;6.65;;;26.30;95.90;;;;;;5052207;28;20040;-71
2022/07/31 04:54:23;;;;;;;16.27;6.25;;;26.60;96.00;;;;;;5040629;28;20048;-71
2022/07/31 04:57:27;;;;;;;11.32;5.70;;;27.40;94.70;;;;;;5051892;28;20040;-71
2022/07/31 05:00:31;;;;;;;15.77;6.30;;;28.40;93.10;;;;;;5052077;28;20048;-71
2022/07/31 05:03:38;;;;;;;23.63;6.40;;;29.50;91.30;;;;;;5051560;28;20056;-71
2022/07/31 05:06:44;;;;;;;17.88;7.10;;;30.10;90.30;;;;;;5052754;28;20060;-72
2022/07/31 05:09:48;;;;;;;14.50;8.82;;;30.90;88.70;;;;;;5051621;28;20388;-71
2022/07/31 05:12:52;;;;;;;16.50;8.93;;;31.50;86.50;;;;;;5051390;28;20100;-71
2022/07/31 05:15:55;;;;;;;18.60;10.88;;;31.90;85.20;;;;;;5051695;28;20039;-71
2022/07/31 05:19:00;;;;;;;20.05;10.95;;;31.80;85.20;;;;;;5051522;28;20044;-72
2022/07/31 05:22:23;;;;;;;20.65;11.35;;;31.70;85.40;;;;;;5052014;28;20064;-71
2022/07/31 05:25:45;;;;;;;17.63;8.52;;;31.50;86.20;;;;;;5051378;28;20052;-71
2022/07/31 05:28:51;;;;;;;15.65;7.50;;;31.30;86.20;;;;;;5051649;28;20051;-71
2022/07/31 05:31:55;;;;;;;12.05;7.45;;;30.80;86.80;;;;;;5051804;28;20420;-72
2022/07/31 05:35:00;;;;;;;13.45;6.90;;;30.40;89.30;;;;;;5050951;28;20503;-72
2022/07/31 05:38:03;;;;;;;13.38;7.85;;;30.30;89.20;;;;;;5052243;28;20044;-72
2022/07/31 05:41:25;;;;;;;14.32;7.10;;;30.30;89.90;;;;;;5051204;28;20055;-72
2022/07/31 05:44:48;;;;;;;17.33;6.72;;;30.40;89.50;;;;;;5051857;28;20044;-71
2022/07/31 05:47:52;;;;;;;18.13;11.10;;;30.30;89.50;;;;;;5051106;28;20044;-72
2022/07/31 05:50:56;;;;;;;20.83;8.45;;;30.40;89.70;;;;;;5051945;28;20036;-72
2022/07/31 05:54:00;;;;;;;18.02;7.47;;;30.60;88.60;;;;;;5051068;28;20036;-71
2022/07/31 05:57:22;;;;;;;16.25;8.02;;;30.40;88.50;;;;;;5052331;28;20047;-71
2022/07/31 06:00:28;;;;;;;12.02;7.20;;;30.30;89.00;;;;;;5050724;28;20044;-71
2022/07/31 06:03:34;;;;;;;17.83;7.35;;;30.30;88.10;;;;;;5050782;28;20056;-71
2022/07/31 06:06:42;;;;;;;16.35;7.35;;;30.20;89.30;;;;;;5050895;28;20048;-71
2022/07/31 06:09:46;;;;;;;21.42;7.47;;;30.60;88.90;;;;;;5051178;28;20052;-72
2022/07/31 06:12:50;;;;;;;12.13;7.18;;;31.00;87.60;;;;;;5050689;28;20104;-71
2022/07/31 06:15:57;;;;;;;15.25;6.53;;;31.00;86.30;;;;;;5050724;28;20400;-72
2022/07/31 06:19:01;;;;;;;24.80;7.25;;;31.10;84.20;;;;;;5050593;28;20503;-72
2022/07/31 06:22:05;;;;;;;11.95;5.10;;;31.00;84.30;;;;;;5050130;28;20044;-71
2022/07/31 06:25:10;;;;;;;17.70;4.68;;;31.10;82.20;;;;;;5050208;28;20048;-71
2022/07/31 06:28:14;;;;;;;14.70;5.35;;;30.80;80.40;;;;;;5051306;28;20036;-72
2022/07/31 06:31:20;;;;;;;15.90;5.47;;;30.70;80.70;;;;;;5050245;28;20039;-71
2022/07/31 06:34:25;;;;;;;9.82;4.65;;;30.80;80.70;;;;;;5050399;28;20048;-72
2022/07/31 06:37:29;;;;;;;18.75;4.78;;;30.80;80.30;;;;;;5051201;28;20388;-70
2022/07/31 06:40:33;;;;;;;19.58;4.45;;;30.90;79.80;;;;;;5049634;28;20060;-71
2022/07/31 06:44:09;;;;;;;23.95;4.97;;;31.00;78.90;;;;;;5051168;28;20055;-71
2022/07/31 06:47:34;;;;;;;14.18;4.30;;;31.00;77.90;;;;;;5050606;28;20052;-70
2022/07/31 06:51:13;;;;;;;9.27;4.07;;;31.00;77.40;;;;;;5051033;28;20044;-70
2022/07/31 06:54:24;;;;;;;10.80;4.22;;;31.10;77.00;;;;;;5050014;28;20048;-70
2022/07/31 06:57:28;;;;;;;9.93;4.00;;;31.40;76.80;;;;;;5050071;28;20049;-71
2022/07/31 07:00:32;;;;;;;10.13;4.57;;;31.70;76.10;;;;;;5050081;28;20036;-72
2022/07/31 07:03:36;;;;;;;9.88;3.85;;;32.00;74.90;;;;;;5049668;28;20420;-71
2022/07/31 07:06:41;;;;;;;10.70;4.00;;;31.90;74.60;;;;;;5050085;28;20037;-69
2022/07/31 07:09:45;;;;;;;18.55;3.83;;;32.00;74.50;;;;;;5049758;28;20492;-71
2022/07/31 07:12:54;;;;;;;18.50;4.65;;;32.10;73.80;;;;;;5049979;28;20386;-70
2022/07/31 07:15:58;;;;;;;14.80;3.83;;;32.20;74.30;;;;;;5050624;28;20048;-71
2022/07/31 07:19:03;;;;;;;15.35;3.95;;;32.70;73.30;;;;;;5049583;28;20036;-71
2022/07/31 07:22:08;;;;;;;11.70;4.00;;;32.80;71.80;;;;;;5050399;28;20056;-71
2022/07/31 07:25:12;;;;;;;11.65;3.40;;;32.70;72.00;;;;;;5053409;28;20040;-71
2022/07/31 07:28:16;;;;;;;14.13;3.60;;;32.70;71.60;;;;;;5053482;28;20056;-71
2022/07/31 07:31:21;;;;;;;10.55;3.28;;;33.20;71.00;;;;;;5053684;28;20231;-72
2022/07/31 07:34:26;;;;;;;14.77;3.97;;;33.60;70.60;;;;;;5053491;28;20040;-71
2022/07/31 07:37:30;;;;;;;6.88;3.05;;;33.90;69.70;;;;;;5054128;28;20550;-70
2022/07/31 07:40:34;;;;;;;11.10;3.63;;;33.70;69.70;;;;;;5041587;28;20056;-71
2022/07/31 07:43:38;;;;;;;9.60;3.92;;;33.60;69.20;;;;;;5052967;28;20059;-70
2022/07/31 07:46:42;;;;;;;7.82;3.45;;;33.10;70.00;;;;;;5053375;28;20210;-70
2022/07/31 07:49:50;;;;;;;8.60;3.38;;;32.80;70.20;;;;;;5053215;28;20056;-70
2022/07/31 07:53:08;;;;;;;10.77;3.00;;;33.00;69.90;;;;;;5053010;28;20044;-72
2022/07/31 07:56:31;;;;;;;7.28;3.58;;;33.00;69.60;;;;;;5053699;28;20154;-71
2022/07/31 08:00:05;;;;;;;7.20;3.60;;;33.00;69.10;;;;;;5053764;28;20040;-71
2022/07/31 08:03:25;;;;;;;8.43;2.97;;;33.40;68.30;;;;;;5052777;28;20049;-70
2022/07/31 08:06:29;;;;;;;10.13;3.83;;;33.50;67.60;;;;;;5052583;28;20040;-71
2022/07/31 08:09:35;;;;;;;11.70;3.42;;;33.50;68.40;;;;;;5053028;28;20495;-71
2022/07/31 08:12:57;;;;;;;6.45;3.17;;;33.70;68.30;;;;;;5053639;28;20048;-72
2022/07/31 08:16:20;;;;;;;11.18;3.25;;;33.60;67.00;;;;;;5053555;28;20044;-71
2022/07/31 08:19:28;;;;;;;7.90;3.30;;;33.70;68.00;;;;;;5052940;28;20052;-71
2022/07/31 08:22:32;;;;;;;7.78;3.22;;;33.80;66.60;;;;;;5053449;28;20049;-71
2022/07/31 08:25:38;;;;;;;9.25;3.05;;;33.70;66.00;;;;;;5052251;28;20037;-70
2022/07/31 08:28:43;;;;;;;8.18;3.15;;;33.70;66.70;;;;;;5052623;28;20037;-71
2022/07/31 08:31:50;;;;;;;21.45;3.33;;;33.60;66.20;;;;;;5052469;28;20398;-72
2022/07/31 08:35:33;;;;;;;4.30;2.63;;;33.60;64.60;;;;;;5053293;28;20404;-70
2022/07/31 08:38:38;;;;;;;9.38;2.47;;;33.50;64.70;;;;;;5052355;28;20460;-72
2022/07/31 08:42:09;;;;;;;6.43;2.67;;;33.70;65.00;;;;;;5053060;28;20052;-70
2022/07/31 08:45:15;;;;;;;5.40;2.20;;;34.00;62.80;;;;;;5052367;28;20041;-71
2022/07/31 08:48:32;;;;;;;9.25;2.70;;;34.00;61.20;;;;;;5052249;28;20684;-71
2022/07/31 08:51:38;;;;;;;8.18;2.67;;;34.00;62.10;;;;;;5052052;28;20395;-71
2022/07/31 08:54:52;;;;;;;8.68;2.75;;;34.20;61.70;;;;;;5053093;28;20048;-70
2022/07/31 08:57:57;;;;;;;5.55;2.53;;;34.10;62.00;;;;;;5053002;28;20524;-71
2022/07/31 09:01:01;;;;;;;5.70;2.88;;;34.00;61.90;;;;;;5052661;28;20048;-71
2022/07/31 09:04:05;;;;;;;8.13;2.40;;;33.50;62.70;;;;;;5028610;28;20045;-71
2022/07/31 09:07:13;;;;;;;8.73;2.92;;;33.20;62.90;;;;;;5051683;28;20045;-72
2022/07/31 09:10:21;;;;;;;7.78;2.30;;;33.30;63.40;;;;;;5051570;28;20048;-70
2022/07/31 09:13:26;;;;;;;5.57;2.35;;;33.30;62.20;;;;;;5051641;28;20412;-71
2022/07/31 09:16:30;;;;;;;7.75;2.40;;;33.60;62.40;;;;;;5051689;28;20735;-71
2022/07/31 09:19:40;;;;;;;4.18;2.13;;;33.60;60.90;;;;;;5052557;28;20037;-71
2022/07/31 09:23:14;;;;;;;3.05;2.00;;;33.70;60.80;;;;;;5051279;28;20065;-72
2022/07/31 09:26:32;;;;;;;4.05;2.08;;;33.70;60.70;;;;;;5051237;28;20033;-72
2022/07/31 09:29:39;;;;;;;4.13;2.30;;;33.90;59.80;;;;;;5051191;28;20040;-72
2022/07/31 09:32:47;;;;;;;6.50;2.30;;;33.60;60.40;;;;;;5051407;28;20051;-72
2022/07/31 09:36:01;;;;;;;8.52;1.83;;;33.70;60.30;;;;;;5051173;28;20037;-71
2022/07/31 09:39:13;;;;;;;3.80;2.38;;;33.60;59.40;;;;;;5050882;28;20029;-72
2022/07/31 09:42:49;;;;;;;6.50;2.50;;;33.70;59.10;;;;;;5057126;28;20048;-72
2022/07/31 09:45:59;;;;;;;5.18;1.73;;;34.00;59.00;;;;;;5050430;28;20056;-70
2022/07/31 09:49:04;;;;;;;3.97;2.00;;;34.00;57.80;;;;;;5051230;28;20500;-71
2022/07/31 09:52:18;;;;;;;7.05;1.77;;;33.90;57.20;;;;;;5050607;28;20044;-71
2022/07/31 09:55:24;;;;;;;2.35;1.70;;;33.90;56.80;;;;;;5050757;28;20048;-70
2022/07/31 09:58:28;;;;;;;2.88;1.75;;;33.60;57.40;;;;;;5050858;28;20044;-71
2022/07/31 10:01:35;;;;;;;5.25;1.60;;;33.40;56.90;;;;;;5051634;28;20393;-71
2022/07/31 10:04:40;;;;;;;2.00;1.70;;;33.50;56.70;;;;;;5050796;28;20045;-72
2022/07/31 10:07:49;;;;;;;4.68;1.48;;;33.60;56.60;;;;;;5050427;28;20040;-71
2022/07/31 10:11:01;;;;;;;3.88;1.60;;;33.90;56.20;;;;;;5050450;28;20048;-71
2022/07/31 10:14:22;;;;;;;9.63;2.03;;;33.90;55.40;;;;;;5050410;28;20048;-71
2022/07/31 10:17:31;;;;;;;6.95;2.33;;;33.90;56.40;;;;;;5050509;28;20058;-71
2022/07/31 10:21:14;;;;;;;4.75;2.42;;;33.90;56.60;;;;;;5051029;28;20060;-73
2022/07/31 10:24:46;;;;;;;16.25;3.22;;;34.00;56.30;;;;;;5051094;28;20045;-72
2022/07/31 10:27:52;;;;;;;3.38;2.60;;;34.10;56.80;;;;;;5050398;28;20040;-71
2022/07/31 10:30:57;;;;;;;4.50;2.28;;;33.90;56.20;;;;;;5050350;28;20037;-70
2022/07/31 10:34:02;;;;;;;7.30;2.50;;;34.00;56.20;;;;;;5038740;28;20029;-72
2022/07/31 10:37:51;;;;;;;5.30;2.28;;;34.20;55.60;;;;;;5054730;28;20044;-72
2022/07/31 10:41:49;;;;;;;4.80;2.53;;;34.30;55.10;;;;;;5049889;28;20053;-71
2022/07/31 10:45:02;;;;;;;5.13;2.38;;;34.10;56.40;;;;;;5050237;28;20048;-72
2022/07/31 10:48:16;;;;;;;;;;;34.10;57.20;;;;;;5050464;28;20036;-70
2022/07/31 10:51:51;;;;;;;8.20;1.75;;;34.20;55.40;;;;;;5056252;28;20279;-72
2022/07/31 10:55:28;;;;;;;3.88;2.30;;;34.20;54.40;;;;;;5049983;28;20042;-71
2022/07/31 10:59:06;;;;;;;6.53;1.65;;;34.00;54.90;;;;;;5054243;28;20118;-71
2022/07/31 11:02:33;;;;;;;8.23;2.50;;;33.90;54.80;;;;;;5048859;28;20042;-71
2022/07/31 11:05:57;;;;;;;3.45;2.65;;;33.80;55.40;;;;;;5054378;28;20049;-72
2022/07/31 11:09:40;;;;;;;3.67;1.50;;;33.90;56.30;;;;;;5054646;28;20049;-72
2022/07/31 11:13:16;;;;;;;3.95;1.88;;;33.90;53.10;;;;;;5041466;28;20404;-70
2022/07/31 11:16:30;;;;;;;3.67;1.63;;;33.70;53.90;;;;;;5053877;28;20037;-72
2022/07/31 11:20:00;;;;;;;4.00;1.50;;;33.70;53.70;;;;;;5054695;28;20500;-73
2022/07/31 11:23:09;;;;;;;6.78;1.90;;;33.70;54.10;;;;;;5054819;28;20056;-72
2022/07/31 11:26:16;;;;;;;3.40;1.40;;;33.80;53.60;;;;;;5054549;28;20040;-72
2022/07/31 11:29:36;;;;;;;5.18;1.90;;;33.70;52.90;;;;;;5054121;28;20048;-72
2022/07/31 11:32:47;;;;;;;5.50;1.88;;;33.80;53.30;;;;;;5054359;28;20029;-71
2022/07/31 11:35:51;;;;;;;4.70;1.55;;;33.70;53.30;;;;;;5054218;28;20416;-72
2022/07/31 11:38:55;;;;;;;7.18;1.60;;;33.70;52.20;;;;;;5054555;28;20037;-73
2022/07/31 11:42:02;;;;;;;4.00;1.55;;;33.80;51.40;;;;;;5054005;28;20045;-72
2022/07/31 11:45:09;;;;;;;4.22;1.38;;;33.90;51.80;;;;;;5054454;28;20049;-72
2022/07/31 11:48:17;;;;;;;6.45;1.45;;;34.10;50.80;;;;;;5053998;28;20514;-71
2022/07/31 11:51:23;;;;;;;2.15;1.40;;;34.20;51.30;;;;;;5054370;28;20045;-71
2022/07/31 11:54:27;;;;;;;6.88;1.40;;;34.20;50.60;;;;;;5054195;28;20041;-72
2022/07/31 11:57:32;;;;;;;6.43;1.20;;;34.20;49.60;;;;;;5054224;28;20199;-72
2022/07/31 12:01:07;;;;;;;4.00;1.30;;;34.20;50.20;;;;;;5053271;28;20033;-72
2022/07/31 12:04:19;;;;;;;2.22;1.30;;;34.20;49.50;;;;;;5053725;28;20424;-72
2022/07/31 12:07:24;;;;;;;2.60;1.30;;;34.10;50.40;;;;;;5053522;28;20040;-71
2022/07/31 12:10:28;;;;;;;1.58;1.20;;;33.80;50.10;;;;;;5053711;28;20050;-72
2022/07/31 12:13:32;;;;;;;2.90;2.53;;;33.90;50.50;;;;;;5053612;28;20041;-72
2022/07/31 12:16:40;;;;;;;4.40;1.50;;;33.90;50.00;;;;;;5053424;28;20037;-71
2022/07/31 12:19:44;;;;;;;1.50;1.20;;;34.00;49.60;;;;;;5052979;28;20044;-70
2022/07/31 12:22:57;;;;;;;11.10;5.18;;;34.10;49.90;;;;;;5053526;28;20048;-71
2022/07/31 12:26:01;;;;;;;8.77;5.50;;;34.20;49.80;;;;;;5053527;28;20100;-70
2022/07/31 12:29:10;;;;;;;8.65;1.33;;;34.20;50.20;;;;;;5053585;28;20366;-71
2022/07/31 12:32:25;;;;;;;1.15;0.90;;;34.10;49.60;;;;;;5053479;28;20041;-71
2022/07/31 12:35:38;;;;;;;4.50;1.70;;;34.10;49.00;;;;;;5053124;28;20044;-71
2022/07/31 12:38:43;;;;;;;1.45;1.20;;;34.10;49.90;;;;;;5053210;28;20472;-71
2022/07/31 12:41:47;;;;;;;6.85;1.70;;;34.10;50.00;;;;;;5053081;28;20401;-71
2022/07/31 12:44:52;;;;;;;2.33;1.30;;;34.00;49.10;;;;;;5053044;28;20057;-71
2022/07/31 12:47:56;;;;;;;3.53;1.48;;;33.90;49.50;;;;;;5053089;28;20052;-72
2022/07/31 12:51:01;;;;;;;8.55;2.03;;;34.00;49.60;;;;;;5053122;28;20036;-71
2022/07/31 12:54:06;;;;;;;7.97;1.00;;;34.10;49.30;;;;;;5052857;28;20040;-72
2022/07/31 12:57:11;;;;;;;2.97;1.38;;;34.00;49.30;;;;;;5052750;28;20032;-72
2022/07/31 13:00:17;;;;;;;3.65;1.20;;;34.00;49.50;;;;;;5051812;28;20036;-71
2022/07/31 13:03:21;;;;;;;3.80;1.13;;;34.00;48.90;;;;;;5052603;28;20064;-71
2022/07/31 13:06:29;;;;;;;1.35;0.90;;;34.00;48.50;;;;;;5052779;28;20029;-71
2022/07/31 13:09:33;;;;;;;2.97;1.10;;;34.10;48.40;;;;;;5052394;28;20400;-71
2022/07/31 13:12:37;;;;;;;2.22;1.08;;;34.00;49.00;;;;;;5052586;28;20033;-71
2022/07/31 13:15:41;;;;;;;2.33;1.40;;;34.10;48.60;;;;;;5052498;28;20037;-72
2022/07/31 13:18:45;;;;;;;4.00;1.20;;;34.10;48.90;;;;;;5052290;28;20044;-72
2022/07/31 13:21:49;;;;;;;2.53;1.42;;;34.10;47.50;;;;;;5051842;28;20070;-72
2022/07/31 13:24:53;;;;;;;3.55;1.33;;;34.10;47.70;;;;;;5052275;28;20045;-72
2022/07/31 13:27:58;;;;;;;4.57;1.25;;;33.90;47.30;;;;;;5052241;28;20386;-72
2022/07/31 13:31:02;;;;;;;7.15;1.10;;;33.90;47.40;;;;;;5052091;28;20499;-71
2022/07/31 13:34:06;;;;;;;3.15;1.05;;;34.00;47.40;;;;;;5052158;28;20040;-72
2022/07/31 13:37:10;;;;;;;7.20;1.27;;;34.10;48.00;;;;;;5051872;28;20050;-72
2022/07/31 13:40:14;;;;;;;4.00;1.20;;;34.10;47.40;;;;;;5051754;28;20049;-72
2022/07/31 13:43:18;;;;;;;3.58;1.42;;;34.00;47.50;;;;;;5052164;28;20037;-72
2022/07/31 13:46:24;;;;;;;6.85;1.30;;;34.00;47.90;;;;;;5051944;28;20041;-71
2022/07/31 13:49:30;;;;;;;3.65;1.15;;;33.90;47.90;;;;;;5051964;28;20033;-72
2022/07/31 13:52:34;;;;;;;3.25;1.02;;;34.00;47.70;;;;;;5051052;28;20044;-72
2022/07/31 13:55:38;;;;;;;3.30;1.27;;;34.10;47.90;;;;;;5051872;28;20042;-72
2022/07/31 13:58:43;;;;;;;2.95;1.05;;;34.10;48.00;;;;;;5051045;28;20491;-72
2022/07/31 14:01:50;;;;;;;2.70;1.00;;;34.20;47.80;;;;;;5051418;28;20495;-71
2022/07/31 14:04:54;;;;;;;5.30;1.30;;;34.20;47.80;;;;;;5051514;28;20045;-72
2022/07/31 14:07:59;;;;;;;5.40;1.13;;;34.20;47.50;;;;;;5051020;28;20052;-71
2022/07/31 14:11:03;;;;;;;2.25;1.20;;;34.10;48.10;;;;;;5051341;28;20044;-71
2022/07/31 14:14:07;;;;;;;8.75;1.15;;;34.10;47.80;;;;;;5051357;28;20029;-71
2022/07/31 14:17:10;;;;;;;4.30;1.20;;;34.00;47.70;;;;;;5051563;28;20049;-72
2022/07/31 14:20:15;;;;;;;3.90;1.15;;;33.90;47.80;;;;;;5050942;28;20029;-71
2022/07/31 14:23:18;;;;;;;3.75;1.10;;;33.90;47.90;;;;;;5051390;28;20044;-72
2022/07/31 14:26:22;;;;;;;3.35;1.20;;;33.80;48.00;;;;;;5050366;28;20059;-71
2022/07/31 14:29:26;;;;;;;3.35;1.20;;;33.90;47.40;;;;;;5051271;28;20033;-71
2022/07/31 14:32:30;;;;;;;3.78;1.40;;;33.90;47.10;;;;;;5050740;28;20051;-71
2022/07/31 14:35:34;;;;;;;2.40;1.23;;;33.90;47.60;;;;;;5051014;28;20412;-73
2022/07/31 14:38:38;;;;;;;3.75;1.42;;;33.90;47.50;;;;;;5051357;28;20045;-71
2022/07/31 14:41:42;;;;;;;3.08;1.20;;;33.70;47.40;;;;;;5050853;28;20053;-72
2022/07/31 14:44:47;;;;;;;3.78;1.50;;;33.80;48.00;;;;;;5050654;28;20048;-73
2022/07/31 14:47:53;;;;;;;2.17;1.35;;;33.80;47.30;;;;;;5051072;28;20135;-72
2022/07/31 14:50:57;;;;;;;3.25;1.30;;;33.90;47.10;;;;;;5050988;28;20047;-72
2022/07/31 14:54:01;;;;;;;3.58;1.30;;;33.90;47.00;;;;;;5050629;28;20036;-72
2022/07/31 14:57:05;;;;;;;7.60;1.63;;;33.80;47.20;;;;;;5050861;28;20041;-72
2022/07/31 15:00:13;;;;;;;2.95;1.52;;;33.90;47.60;;;;;;5050745;28;20509;-72
2022/07/31 15:03:17;;;;;;;2.55;1.60;;;33.90;46.80;;;;;;5050879;28;20040;-71
2022/07/31 15:06:21;;;;;;;1.65;1.10;;;33.80;46.80;;;;;;5051019;28;20059;-72
2022/07/31 15:09:25;;;;;;;6.35;1.50;;;33.70;46.80;;;;;;5050563;28;20514;-72
2022/07/31 15:12:29;;;;;;;3.20;1.70;;;33.70;46.70;;;;;;5051014;28;20054;-70
2022/07/31 15:15:34;;;;;;;2.00;1.50;;;33.70;46.70;;;;;;5050726;28;20045;-71
2022/07/31 15:18:38;;;;;;;2.85;1.55;;;33.70;46.60;;;;;;5050537;28;20033;-72
2022/07/31 15:21:48;;;;;;;6.47;2.45;;;33.70;46.50;;;;;;5050597;28;20052;-72
2022/07/31 15:24:52;;;;;;;;;;;33.60;46.70;;;;;;5050688;28;20053;-72
2022/07/31 15:27:57;;;;;;;3.17;1.52;;;33.70;46.60;;;;;;5050908;28;19924;-71
2022/07/31 15:31:01;;;;;;;7.03;1.70;;;33.70;46.20;;;;;;5050464;28;20052;-72
2022/07/31 15:34:05;;;;;;;5.03;1.80;;;33.60;46.10;;;;;;5050476;28;20060;-72
2022/07/31 15:37:08;;;;;;;7.45;1.58;;;33.60;45.70;;;;;;5050686;28;20128;-71
2022/07/31 15:40:15;;;;;;;2.33;1.52;;;33.60;46.20;;;;;;5050126;28;20049;-70
2022/07/31 15:43:19;;;;;;;7.68;3.70;;;33.70;46.00;;;;;;5050979;28;20048;-73
2022/07/31 15:46:23;;;;;;;3.65;1.70;;;33.70;46.00;;;;;;5054372;28;20036;-72
2022/07/31 15:49:27;;;;;;;5.03;1.40;;;33.70;45.80;;;;;;5054022;28;20044;-71
2022/07/31 15:52:31;;;;;;;1.70;1.33;;;33.70;46.00;;;;;;5053997;28;20036;-73
2022/07/31 15:55:36;;;;;;;1.77;1.27;;;33.70;45.80;;;;;;5054027;28;20041;-71
2022/07/31 15:58:40;;;;;;;2.45;1.50;;;33.70;46.00;;;;;;5053800;28;20044;-71
2022/07/31 16:01:44;;;;;;;3.13;1.30;;;33.70;45.60;;;;;;5053969;28;20424;-72
2022/07/31 16:04:49;;;;;;;1.45;1.30;;;33.70;45.50;;;;;;5053727;28;20056;-71
2022/07/31 16:07:52;;;;;;;5.32;1.40;;;33.60;44.90;;;;;;5052597;28;20531;-70
2022/07/31 16:10:57;;;;;;;4.50;1.58;;;33.60;45.00;;;;;;5053226;28;20275;-71
2022/07/31 16:14:01;;;;;;;5.32;1.73;;;33.50;45.30;;;;;;5053746;28;20044;-72
2022/07/31 16:17:06;;;;;;;4.13;1.17;;;33.50;45.40;;;;;;5053269;28;20036;-71